Heina — LAWY7 — position and weather

sailwx.info

Track history (hours):
 
Tides and Currents Weather Stations Pressure Air Temp Water Temp Dewpoint Dewpoint Depression Visibility Wind Speed Wind Dir Waves Ship Positions

Heina

Last reported at 2017-Nov-04 01:49 UTC. Time now 2017-Nov-17 23:20 UTC.
Position N 60°24' E 019°01'.
Warning: this ship's position is 13 days out of date.

Length 225 m; draft 13.6 m.

Type: Ship. MMSI: 258443000.

Date/timePositionNaut miles runAvg speedWind from/ knotsBaromVisibWave heightAir tempDewpointWater temp
2017-Nov-04 01:49N 60°24' E 019°01'411.9
2017-Nov-04 01:31N 60°21' E 019°01'611.7
2017-Nov-04 01:01N 60°15' E 019°01'611.7
2017-Nov-04 00:30N 60°10' E 019°09'611.4
2017-Nov-04 00:01N 60°06' E 019°16'611.3
2017-Nov-03 23:31N 60°01' E 019°23'611.6
2017-Nov-03 23:00N 59°56' E 019°30'611.7
2017-Nov-03 22:28N 59°52' E 019°38'259 9.7
2017-Nov-02 19:51N 55°48' E 016°52'410.7
2017-Nov-02 19:30N 55°47' E 016°46'611.0
2017-Nov-02 19:00N 55°46' E 016°36'511.1
2017-Nov-02 18:31N 55°44' E 016°27'611.0
2017-Nov-02 18:01N 55°43' E 016°17'510.9
2017-Nov-02 17:31N 55°42' E 016°08'610.9
2017-Nov-02 17:00N 55°41' E 015°58'511.0
2017-Nov-02 16:31N 55°40' E 015°49'511.0
2017-Nov-02 16:00N 55°38' E 015°40'510.8
2017-Nov-02 15:31N 55°37' E 015°30'510.6
2017-Nov-02 15:01N 55°35' E 015°21'510.6
2017-Nov-02 14:31N 55°33' E 015°13'510.7
2017-Nov-02 14:00N 55°31' E 015°04'510.8
2017-Nov-02 13:30N 55°28' E 014°56'510.9
2017-Nov-02 13:00N 55°26' E 014°47'510.6
2017-Nov-02 12:30N 55°23' E 014°39'510.1
2017-Nov-02 12:00N 55°19' E 014°34'5 9.7
2017-Nov-02 11:30N 55°15' E 014°29'510.1
2017-Nov-02 11:00N 55°12' E 014°23'510.4
2017-Nov-02 10:30N 55°08' E 014°17'510.6
2017-Nov-02 10:01N 55°03' E 014°11'510.5
2017-Nov-02 09:30N 55°00' E 014°04'610.9
2017-Nov-02 08:55N 54°58' E 013°53'510.9
2017-Nov-02 08:25N 54°57' E 013°45'511.0
2017-Nov-02 07:57N 54°55' E 013°36'511.0
2017-Nov-02 07:30N 54°54' E 013°28'2411.1
2017-Nov-02 05:23N 54°47' E 012°49'411.0
2017-Nov-02 05:00N 54°45' E 012°42'511.1
2017-Nov-02 04:30N 54°42' E 012°34'811.4
2017-Nov-02 03:47N 54°38' E 012°22'411.3
2017-Nov-02 03:27N 54°36' E 012°17'4 9.7
2017-Nov-02 03:01N 54°31' E 012°15'611.1
2017-Nov-02 02:30N 54°26' E 012°11'510.8
2017-Nov-02 02:00N 54°25' E 012°02'611.7
2017-Nov-02 01:30N 54°25' E 011°52'611.9
2017-Nov-02 01:00N 54°26' E 011°42'612.2
2017-Nov-02 00:30N 54°29' E 011°33'612.5
2017-Nov-02 00:01N 54°32' E 011°23'612.7
2017-Nov-01 23:31N 54°34' E 011°13'612.4
2017-Nov-01 23:01N 54°35' E 011°03'611.9
2017-Nov-01 22:31N 54°38' E 010°53'611.4
2017-Nov-01 22:01N 54°42' E 010°47'611.5
2017-Nov-01 21:31N 54°47' E 010°49'612.3
2017-Nov-01 21:01N 54°54' E 010°51'611.5
2017-Nov-01 20:31N 54°58' E 010°57'611.5
2017-Nov-01 20:00N 55°04' E 010°60'611.7
2017-Nov-01 19:30N 55°09' E 010°60'510.6
2017-Nov-01 19:01N 55°13' E 011°06'611.9
2017-Nov-01 18:29N 55°19' E 011°02'149 9.0
2017-Nov-01 01:59N 57°46' E 010°16'611.9
2017-Nov-01 01:26N 57°46' E 010°04'512.2
2017-Nov-01 01:00N 57°45' E 009°54'612.1
2017-Nov-01 00:30N 57°45' E 009°43'611.9
2017-Nov-01 00:00N 57°44' E 009°31'711.8
2017-Oct-31 23:25N 57°44' E 009°18'5711.1
2017-Oct-31 18:14N 57°41' E 007°31'210.5
2017-Oct-31 18:01N 57°42' E 007°27'510.5
2017-Oct-31 17:30N 57°42' E 007°17'510.7
2017-Oct-31 17:00N 57°42' E 007°07'611.0
2017-Oct-31 16:29N 57°42' E 006°56'711.3
2017-Oct-31 15:54N 57°43' E 006°44'410.8
2017-Oct-31 15:30N 57°43' E 006°36'611.4
2017-Oct-31 14:59N 57°46' E 006°26'511.2
2017-Oct-31 14:30N 57°48' E 006°17'511.1
2017-Oct-31 14:00N 57°50' E 006°07'510.8
2017-Oct-31 13:30N 57°52' E 005°58'611.0
2017-Oct-31 12:58N 57°55' E 005°48'610.9
2017-Oct-31 12:28N 57°58' E 005°39'24711.0
2017-Oct-30 13:55N 59°24' W 001°46'510.8
2017-Oct-30 13:28N 59°25' W 001°56'4910.3
2017-Oct-30 08:42N 59°27' W 003°32'311.7
2017-Oct-30 08:27N 59°26' W 003°37'511.9
2017-Oct-30 08:00N 59°24' W 003°47'612.2
2017-Oct-30 07:30N 59°22' W 003°59'611.7
2017-Oct-30 07:00N 59°20' W 004°09'912.0
2017-Oct-30 06:17N 59°15' W 004°24'311.7
2017-Oct-30 06:00N 59°14' W 004°29'  
Track history (hours):
 
Tides and Currents Weather Stations Pressure Air Temp Water Temp Dewpoint Dewpoint Depression Visibility Wind Speed Wind Dir Waves Ship Positions

Heina

Last reported at 2017-Nov-04 01:49 UTC. Time now 2017-Nov-17 23:20 UTC.
Position N 60°24' E 019°01'.
Warning: this ship's position is 13 days out of date.

Length 225 m; draft 13.6 m.

Type: Ship. MMSI: 258443000.

Date/timePositionNaut miles runAvg speedWind from/ knotsBaromVisibWave heightAir tempDewpointWater temp
2017-Nov-04 01:49N 60°24' E 019°01'411.9
2017-Nov-04 01:31N 60°21' E 019°01'611.7
2017-Nov-04 01:01N 60°15' E 019°01'611.7
2017-Nov-04 00:30N 60°10' E 019°09'611.4
2017-Nov-04 00:01N 60°06' E 019°16'611.3
2017-Nov-03 23:31N 60°01' E 019°23'611.6
2017-Nov-03 23:00N 59°56' E 019°30'611.7
2017-Nov-03 22:28N 59°52' E 019°38'259 9.7
2017-Nov-02 19:51N 55°48' E 016°52'410.7
2017-Nov-02 19:30N 55°47' E 016°46'611.0
2017-Nov-02 19:00N 55°46' E 016°36'511.1
2017-Nov-02 18:31N 55°44' E 016°27'611.0
2017-Nov-02 18:01N 55°43' E 016°17'510.9
2017-Nov-02 17:31N 55°42' E 016°08'610.9
2017-Nov-02 17:00N 55°41' E 015°58'511.0
2017-Nov-02 16:31N 55°40' E 015°49'511.0
2017-Nov-02 16:00N 55°38' E 015°40'510.8
2017-Nov-02 15:31N 55°37' E 015°30'510.6
2017-Nov-02 15:01N 55°35' E 015°21'510.6
2017-Nov-02 14:31N 55°33' E 015°13'510.7
2017-Nov-02 14:00N 55°31' E 015°04'510.8
2017-Nov-02 13:30N 55°28' E 014°56'510.9
2017-Nov-02 13:00N 55°26' E 014°47'510.6
2017-Nov-02 12:30N 55°23' E 014°39'510.1
2017-Nov-02 12:00N 55°19' E 014°34'5 9.7
2017-Nov-02 11:30N 55°15' E 014°29'510.1
2017-Nov-02 11:00N 55°12' E 014°23'510.4
2017-Nov-02 10:30N 55°08' E 014°17'510.6
2017-Nov-02 10:01N 55°03' E 014°11'510.5
2017-Nov-02 09:30N 55°00' E 014°04'610.9
2017-Nov-02 08:55N 54°58' E 013°53'510.9
2017-Nov-02 08:25N 54°57' E 013°45'511.0
2017-Nov-02 07:57N 54°55' E 013°36'511.0
2017-Nov-02 07:30N 54°54' E 013°28'2411.1
2017-Nov-02 05:23N 54°47' E 012°49'411.0
2017-Nov-02 05:00N 54°45' E 012°42'511.1
2017-Nov-02 04:30N 54°42' E 012°34'811.4
2017-Nov-02 03:47N 54°38' E 012°22'411.3
2017-Nov-02 03:27N 54°36' E 012°17'4 9.7
2017-Nov-02 03:01N 54°31' E 012°15'611.1
2017-Nov-02 02:30N 54°26' E 012°11'510.8
2017-Nov-02 02:00N 54°25' E 012°02'611.7
2017-Nov-02 01:30N 54°25' E 011°52'611.9
2017-Nov-02 01:00N 54°26' E 011°42'612.2
2017-Nov-02 00:30N 54°29' E 011°33'612.5
2017-Nov-02 00:01N 54°32' E 011°23'612.7
2017-Nov-01 23:31N 54°34' E 011°13'612.4
2017-Nov-01 23:01N 54°35' E 011°03'611.9
2017-Nov-01 22:31N 54°38' E 010°53'611.4
2017-Nov-01 22:01N 54°42' E 010°47'611.5
2017-Nov-01 21:31N 54°47' E 010°49'612.3
2017-Nov-01 21:01N 54°54' E 010°51'611.5
2017-Nov-01 20:31N 54°58' E 010°57'611.5
2017-Nov-01 20:00N 55°04' E 010°60'611.7
2017-Nov-01 19:30N 55°09' E 010°60'510.6
2017-Nov-01 19:01N 55°13' E 011°06'611.9
2017-Nov-01 18:29N 55°19' E 011°02'149 9.0
2017-Nov-01 01:59N 57°46' E 010°16'611.9
2017-Nov-01 01:26N 57°46' E 010°04'512.2
2017-Nov-01 01:00N 57°45' E 009°54'612.1
2017-Nov-01 00:30N 57°45' E 009°43'611.9
2017-Nov-01 00:00N 57°44' E 009°31'711.8
2017-Oct-31 23:25N 57°44' E 009°18'5711.1
2017-Oct-31 18:14N 57°41' E 007°31'210.5
2017-Oct-31 18:01N 57°42' E 007°27'510.5
2017-Oct-31 17:30N 57°42' E 007°17'510.7
2017-Oct-31 17:00N 57°42' E 007°07'611.0
2017-Oct-31 16:29N 57°42' E 006°56'711.3
2017-Oct-31 15:54N 57°43' E 006°44'410.8
2017-Oct-31 15:30N 57°43' E 006°36'611.4
2017-Oct-31 14:59N 57°46' E 006°26'511.2
2017-Oct-31 14:30N 57°48' E 006°17'511.1
2017-Oct-31 14:00N 57°50' E 006°07'510.8
2017-Oct-31 13:30N 57°52' E 005°58'611.0
2017-Oct-31 12:58N 57°55' E 005°48'610.9
2017-Oct-31 12:28N 57°58' E 005°39'24711.0
2017-Oct-30 13:55N 59°24' W 001°46'510.8
2017-Oct-30 13:28N 59°25' W 001°56'4910.3
2017-Oct-30 08:42N 59°27' W 003°32'311.7
2017-Oct-30 08:27N 59°26' W 003°37'511.9
2017-Oct-30 08:00N 59°24' W 003°47'612.2
2017-Oct-30 07:30N 59°22' W 003°59'611.7
2017-Oct-30 07:00N 59°20' W 004°09'912.0
2017-Oct-30 06:17N 59°15' W 004°24'311.7
2017-Oct-30 06:00N 59°14' W 004°29'  

Dump ship's entire track history